sensor_id;sensor_type;location;lat;lon;timestamp;temperature;humidity
75451;DHT22;64029;48.244;9.188;2023-07-31T00:01:42;12.50;71.70
75451;DHT22;64029;48.244;9.188;2023-07-31T00:04:09;12.50;71.30
75451;DHT22;64029;48.244;9.188;2023-07-31T00:06:36;12.50;71.00
75451;DHT22;64029;48.244;9.188;2023-07-31T00:09:04;12.50;71.80
75451;DHT22;64029;48.244;9.188;2023-07-31T00:11:31;12.40;71.50
75451;DHT22;64029;48.244;9.188;2023-07-31T00:13:58;12.40;71.10
75451;DHT22;64029;48.244;9.188;2023-07-31T00:16:25;12.40;71.10
75451;DHT22;64029;48.244;9.188;2023-07-31T00:18:52;12.40;70.90
75451;DHT22;64029;48.244;9.188;2023-07-31T00:21:19;12.40;70.90
75451;DHT22;64029;48.244;9.188;2023-07-31T00:23:45;12.30;72.10
75451;DHT22;64029;48.244;9.188;2023-07-31T00:26:14;12.30;72.10
75451;DHT22;64029;48.244;9.188;2023-07-31T00:28:41;12.30;71.70
75451;DHT22;64029;48.244;9.188;2023-07-31T00:31:07;12.30;71.20
75451;DHT22;64029;48.244;9.188;2023-07-31T00:33:35;12.30;71.70
75451;DHT22;64029;48.244;9.188;2023-07-31T00:36:02;12.20;70.60
75451;DHT22;64029;48.244;9.188;2023-07-31T00:38:29;12.20;70.60
75451;DHT22;64029;48.244;9.188;2023-07-31T00:40:55;12.20;70.80
75451;DHT22;64029;48.244;9.188;2023-07-31T00:43:24;12.10;71.00
75451;DHT22;64029;48.244;9.188;2023-07-31T00:45:51;12.10;71.20
75451;DHT22;64029;48.244;9.188;2023-07-31T00:48:18;12.10;70.90
75451;DHT22;64029;48.244;9.188;2023-07-31T00:50:45;12.10;70.60
75451;DHT22;64029;48.244;9.188;2023-07-31T00:53:13;12.10;70.70
75451;DHT22;64029;48.244;9.188;2023-07-31T00:55:40;12.00;70.90
75451;DHT22;64029;48.244;9.188;2023-07-31T00:58:07;11.90;71.80
75451;DHT22;64029;48.244;9.188;2023-07-31T01:00:35;11.90;71.50
75451;DHT22;64029;48.244;9.188;2023-07-31T01:03:02;11.90;72.50
75451;DHT22;64029;48.244;9.188;2023-07-31T01:05:36;11.80;72.80
75451;DHT22;64029;48.244;9.188;2023-07-31T01:08:12;11.80;72.20
75451;DHT22;64029;48.244;9.188;2023-07-31T01:10:48;11.80;72.00
75451;DHT22;64029;48.244;9.188;2023-07-31T01:13:18;11.70;72.20
75451;DHT22;64029;48.244;9.188;2023-07-31T01:15:45;11.70;72.60
75451;DHT22;64029;48.244;9.188;2023-07-31T01:18:12;11.70;72.80
75451;DHT22;64029;48.244;9.188;2023-07-31T01:20:42;11.70;72.40
75451;DHT22;64029;48.244;9.188;2023-07-31T01:26:22;11.60;72.10
75451;DHT22;64029;48.244;9.188;2023-07-31T01:28:56;11.50;72.50
75451;DHT22;64029;48.244;9.188;2023-07-31T01:31:29;11.50;72.40
75451;DHT22;64029;48.244;9.188;2023-07-31T01:34:00;11.40;72.90
75451;DHT22;64029;48.244;9.188;2023-07-31T01:36:27;11.40;72.60
75451;DHT22;64029;48.244;9.188;2023-07-31T01:38:58;11.40;71.90
75451;DHT22;64029;48.244;9.188;2023-07-31T01:41:26;11.50;71.50
75451;DHT22;64029;48.244;9.188;2023-07-31T01:43:53;11.40;71.60
75451;DHT22;64029;48.244;9.188;2023-07-31T01:46:20;11.40;71.50
75451;DHT22;64029;48.244;9.188;2023-07-31T01:48:47;11.40;71.30
75451;DHT22;64029;48.244;9.188;2023-07-31T01:51:14;11.40;71.40
75451;DHT22;64029;48.244;9.188;2023-07-31T01:53:40;11.40;71.20
75451;DHT22;64029;48.244;9.188;2023-07-31T01:56:07;11.40;71.00
75451;DHT22;64029;48.244;9.188;2023-07-31T01:58:35;11.40;70.50
75451;DHT22;64029;48.244;9.188;2023-07-31T02:01:02;11.40;70.40
75451;DHT22;64029;48.244;9.188;2023-07-31T02:03:29;11.30;70.20
75451;DHT22;64029;48.244;9.188;2023-07-31T02:05:56;11.30;70.20
75451;DHT22;64029;48.244;9.188;2023-07-31T02:08:23;11.30;69.90
75451;DHT22;64029;48.244;9.188;2023-07-31T02:10:50;11.30;69.90
75451;DHT22;64029;48.244;9.188;2023-07-31T02:13:17;11.30;69.90
75451;DHT22;64029;48.244;9.188;2023-07-31T02:15:45;11.30;70.40
75451;DHT22;64029;48.244;9.188;2023-07-31T02:18:12;11.30;70.30
75451;DHT22;64029;48.244;9.188;2023-07-31T02:20:39;11.20;70.10
75451;DHT22;64029;48.244;9.188;2023-07-31T02:23:06;11.20;69.80
75451;DHT22;64029;48.244;9.188;2023-07-31T02:25:32;11.20;70.30
75451;DHT22;64029;48.244;9.188;2023-07-31T02:27:59;11.10;70.50
75451;DHT22;64029;48.244;9.188;2023-07-31T02:30:26;11.10;70.40
75451;DHT22;64029;48.244;9.188;2023-07-31T02:32:54;11.10;70.80
75451;DHT22;64029;48.244;9.188;2023-07-31T02:35:21;11.00;70.70
75451;DHT22;64029;48.244;9.188;2023-07-31T02:37:48;11.00;70.80
75451;DHT22;64029;48.244;9.188;2023-07-31T02:40:15;10.90;70.80
75451;DHT22;64029;48.244;9.188;2023-07-31T02:42:42;10.90;71.60
75451;DHT22;64029;48.244;9.188;2023-07-31T02:45:09;10.90;72.90
75451;DHT22;64029;48.244;9.188;2023-07-31T02:47:36;10.90;73.20
75451;DHT22;64029;48.244;9.188;2023-07-31T02:50:05;10.90;72.50
75451;DHT22;64029;48.244;9.188;2023-07-31T02:52:32;10.80;72.10
75451;DHT22;64029;48.244;9.188;2023-07-31T02:54:59;10.80;72.20
75451;DHT22;64029;48.244;9.188;2023-07-31T02:57:25;10.80;72.50
75451;DHT22;64029;48.244;9.188;2023-07-31T02:59:52;10.70;72.20
75451;DHT22;64029;48.244;9.188;2023-07-31T03:02:19;10.70;72.30
75451;DHT22;64029;48.244;9.188;2023-07-31T03:04:46;10.60;72.70
75451;DHT22;64029;48.244;9.188;2023-07-31T03:07:14;10.60;73.40
75451;DHT22;64029;48.244;9.188;2023-07-31T03:09:41;10.50;74.20
75451;DHT22;64029;48.244;9.188;2023-07-31T03:12:08;10.60;74.20
75451;DHT22;64029;48.244;9.188;2023-07-31T03:14:35;10.60;73.30
75451;DHT22;64029;48.244;9.188;2023-07-31T03:17:02;10.60;73.00
75451;DHT22;64029;48.244;9.188;2023-07-31T03:19:30;10.50;73.00
75451;DHT22;64029;48.244;9.188;2023-07-31T03:21:58;10.50;73.90
75451;DHT22;64029;48.244;9.188;2023-07-31T03:24:26;10.50;74.30
75451;DHT22;64029;48.244;9.188;2023-07-31T03:26:53;10.60;74.40
75451;DHT22;64029;48.244;9.188;2023-07-31T03:29:19;10.50;74.10
75451;DHT22;64029;48.244;9.188;2023-07-31T03:31:46;10.40;73.30
75451;DHT22;64029;48.244;9.188;2023-07-31T03:34:13;10.40;73.50
75451;DHT22;64029;48.244;9.188;2023-07-31T03:36:40;10.30;73.90
75451;DHT22;64029;48.244;9.188;2023-07-31T03:39:07;10.30;73.70
75451;DHT22;64029;48.244;9.188;2023-07-31T03:41:35;10.40;73.80
75451;DHT22;64029;48.244;9.188;2023-07-31T03:44:02;10.40;73.70
75451;DHT22;64029;48.244;9.188;2023-07-31T03:46:29;10.30;72.90
75451;DHT22;64029;48.244;9.188;2023-07-31T03:48:56;10.30;72.80
75451;DHT22;64029;48.244;9.188;2023-07-31T03:51:23;10.30;72.90
75451;DHT22;64029;48.244;9.188;2023-07-31T03:53:49;10.30;72.50
75451;DHT22;64029;48.244;9.188;2023-07-31T03:56:16;10.30;72.50
75451;DHT22;64029;48.244;9.188;2023-07-31T03:58:44;10.30;72.60
75451;DHT22;64029;48.244;9.188;2023-07-31T04:01:11;10.30;74.30
75451;DHT22;64029;48.244;9.188;2023-07-31T04:03:38;10.30;74.10
75451;DHT22;64029;48.244;9.188;2023-07-31T04:06:05;10.30;74.40
75451;DHT22;64029;48.244;9.188;2023-07-31T04:08:33;10.30;74.70
75451;DHT22;64029;48.244;9.188;2023-07-31T04:11:00;10.30;74.80
75451;DHT22;64029;48.244;9.188;2023-07-31T04:13:28;10.20;74.30
75451;DHT22;64029;48.244;9.188;2023-07-31T04:15:57;10.20;74.10
75451;DHT22;64029;48.244;9.188;2023-07-31T04:18:24;10.10;74.30
75451;DHT22;64029;48.244;9.188;2023-07-31T04:20:51;10.10;74.80
75451;DHT22;64029;48.244;9.188;2023-07-31T04:23:18;10.20;74.80
75451;DHT22;64029;48.244;9.188;2023-07-31T04:25:45;10.20;75.60
75451;DHT22;64029;48.244;9.188;2023-07-31T04:28:12;10.30;75.90
75451;DHT22;64029;48.244;9.188;2023-07-31T04:30:39;10.30;75.10
75451;DHT22;64029;48.244;9.188;2023-07-31T04:33:07;10.20;75.10
75451;DHT22;64029;48.244;9.188;2023-07-31T04:35:34;10.20;74.60
75451;DHT22;64029;48.244;9.188;2023-07-31T04:38:01;10.20;74.80
75451;DHT22;64029;48.244;9.188;2023-07-31T04:40:28;10.10;74.70
75451;DHT22;64029;48.244;9.188;2023-07-31T04:42:55;10.10;75.10
75451;DHT22;64029;48.244;9.188;2023-07-31T04:45:22;10.10;75.70
75451;DHT22;64029;48.244;9.188;2023-07-31T04:47:49;10.10;76.40
75451;DHT22;64029;48.244;9.188;2023-07-31T04:50:17;10.20;76.30
75451;DHT22;64029;48.244;9.188;2023-07-31T04:52:44;10.20;75.50
75451;DHT22;64029;48.244;9.188;2023-07-31T04:55:11;10.10;75.10
75451;DHT22;64029;48.244;9.188;2023-07-31T04:57:38;10.10;75.10
75451;DHT22;64029;48.244;9.188;2023-07-31T05:00:06;10.20;74.80
75451;DHT22;64029;48.244;9.188;2023-07-31T05:02:33;10.20;73.90
75451;DHT22;64029;48.244;9.188;2023-07-31T05:05:00;10.20;74.00
75451;DHT22;64029;48.244;9.188;2023-07-31T05:07:28;10.20;75.20
75451;DHT22;64029;48.244;9.188;2023-07-31T05:09:55;10.20;75.50
75451;DHT22;64029;48.244;9.188;2023-07-31T05:12:22;10.30;75.20
75451;DHT22;64029;48.244;9.188;2023-07-31T05:14:49;10.30;75.50
75451;DHT22;64029;48.244;9.188;2023-07-31T05:17:15;10.30;76.70
75451;DHT22;64029;48.244;9.188;2023-07-31T05:19:42;10.40;76.70
75451;DHT22;64029;48.244;9.188;2023-07-31T05:22:09;10.40;77.40
75451;DHT22;64029;48.244;9.188;2023-07-31T05:24:37;10.40;76.20
75451;DHT22;64029;48.244;9.188;2023-07-31T05:27:05;10.50;76.00
75451;DHT22;64029;48.244;9.188;2023-07-31T05:29:32;10.50;75.50
75451;DHT22;64029;48.244;9.188;2023-07-31T05:31:59;10.50;75.40
75451;DHT22;64029;48.244;9.188;2023-07-31T05:34:26;10.50;75.00
75451;DHT22;64029;48.244;9.188;2023-07-31T05:36:53;10.60;76.00
75451;DHT22;64029;48.244;9.188;2023-07-31T05:39:20;10.60;76.40
75451;DHT22;64029;48.244;9.188;2023-07-31T05:41:51;10.60;76.80
75451;DHT22;64029;48.244;9.188;2023-07-31T05:44:18;10.70;76.20
75451;DHT22;64029;48.244;9.188;2023-07-31T05:46:44;10.70;75.90
75451;DHT22;64029;48.244;9.188;2023-07-31T05:49:11;10.80;75.80
75451;DHT22;64029;48.244;9.188;2023-07-31T05:51:38;10.90;77.80
75451;DHT22;64029;48.244;9.188;2023-07-31T05:54:05;10.90;77.70
75451;DHT22;64029;48.244;9.188;2023-07-31T05:56:32;11.00;76.70
75451;DHT22;64029;48.244;9.188;2023-07-31T05:59:01;11.00;76.00
75451;DHT22;64029;48.244;9.188;2023-07-31T06:01:28;11.10;75.90
75451;DHT22;64029;48.244;9.188;2023-07-31T06:03:55;11.20;75.90
75451;DHT22;64029;48.244;9.188;2023-07-31T06:06:22;11.20;75.70
75451;DHT22;64029;48.244;9.188;2023-07-31T06:08:49;11.30;75.60
75451;DHT22;64029;48.244;9.188;2023-07-31T06:11:16;11.40;76.10
75451;DHT22;64029;48.244;9.188;2023-07-31T06:13:43;11.50;75.90
75451;DHT22;64029;48.244;9.188;2023-07-31T06:16:14;11.60;75.80
75451;DHT22;64029;48.244;9.188;2023-07-31T06:18:43;11.70;75.90
75451;DHT22;64029;48.244;9.188;2023-07-31T06:21:10;11.80;76.20
75451;DHT22;64029;48.244;9.188;2023-07-31T06:23:37;11.90;76.70
75451;DHT22;64029;48.244;9.188;2023-07-31T06:26:04;12.00;77.20
75451;DHT22;64029;48.244;9.188;2023-07-31T06:28:32;12.00;77.10
75451;DHT22;64029;48.244;9.188;2023-07-31T06:30:59;12.20;77.40
75451;DHT22;64029;48.244;9.188;2023-07-31T06:33:27;12.20;77.20
75451;DHT22;64029;48.244;9.188;2023-07-31T06:35:54;12.30;77.30
75451;DHT22;64029;48.244;9.188;2023-07-31T06:38:23;12.40;77.90
75451;DHT22;64029;48.244;9.188;2023-07-31T06:40:51;12.50;77.60
75451;DHT22;64029;48.244;9.188;2023-07-31T06:43:18;12.60;77.80
75451;DHT22;64029;48.244;9.188;2023-07-31T06:45:45;12.70;78.40
75451;DHT22;64029;48.244;9.188;2023-07-31T06:48:14;12.80;79.20
75451;DHT22;64029;48.244;9.188;2023-07-31T06:50:45;13.00;79.40
75451;DHT22;64029;48.244;9.188;2023-07-31T06:53:12;13.20;81.10
75451;DHT22;64029;48.244;9.188;2023-07-31T06:55:39;13.40;81.10
75451;DHT22;64029;48.244;9.188;2023-07-31T06:58:06;13.50;81.10
75451;DHT22;64029;48.244;9.188;2023-07-31T07:00:32;13.60;82.00
75451;DHT22;64029;48.244;9.188;2023-07-31T07:02:59;13.70;80.80
75451;DHT22;64029;48.244;9.188;2023-07-31T07:05:26;13.90;81.10
75451;DHT22;64029;48.244;9.188;2023-07-31T07:07:54;14.00;80.60
75451;DHT22;64029;48.244;9.188;2023-07-31T07:10:21;14.10;80.20
75451;DHT22;64029;48.244;9.188;2023-07-31T07:12:48;14.30;80.30
75451;DHT22;64029;48.244;9.188;2023-07-31T07:15:16;14.50;80.40
75451;DHT22;64029;48.244;9.188;2023-07-31T07:17:42;14.60;80.00
75451;DHT22;64029;48.244;9.188;2023-07-31T07:20:09;14.70;79.80
75451;DHT22;64029;48.244;9.188;2023-07-31T07:22:36;14.80;79.50
75451;DHT22;64029;48.244;9.188;2023-07-31T07:25:05;15.00;79.60
75451;DHT22;64029;48.244;9.188;2023-07-31T07:27:32;15.30;80.20
75451;DHT22;64029;48.244;9.188;2023-07-31T07:29:59;15.50;79.40
75451;DHT22;64029;48.244;9.188;2023-07-31T07:32:27;15.70;78.60
75451;DHT22;64029;48.244;9.188;2023-07-31T07:34:55;15.80;77.90
75451;DHT22;64029;48.244;9.188;2023-07-31T07:37:22;16.00;76.10
75451;DHT22;64029;48.244;9.188;2023-07-31T07:39:49;16.20;74.70
75451;DHT22;64029;48.244;9.188;2023-07-31T07:42:19;16.40;73.50
75451;DHT22;64029;48.244;9.188;2023-07-31T07:44:49;16.60;73.40
75451;DHT22;64029;48.244;9.188;2023-07-31T07:47:16;16.80;72.30
75451;DHT22;64029;48.244;9.188;2023-07-31T07:49:43;17.00;72.30
75451;DHT22;64029;48.244;9.188;2023-07-31T07:52:10;17.20;71.60
75451;DHT22;64029;48.244;9.188;2023-07-31T07:54:37;17.30;71.70
75451;DHT22;64029;48.244;9.188;2023-07-31T07:57:04;17.40;71.90
75451;DHT22;64029;48.244;9.188;2023-07-31T07:59:32;17.50;71.90
75451;DHT22;64029;48.244;9.188;2023-07-31T08:01:59;17.60;70.30
75451;DHT22;64029;48.244;9.188;2023-07-31T08:04:26;17.70;69.30
75451;DHT22;64029;48.244;9.188;2023-07-31T08:06:53;17.80;70.10
75451;DHT22;64029;48.244;9.188;2023-07-31T08:09:20;17.90;70.00
75451;DHT22;64029;48.244;9.188;2023-07-31T08:11:47;18.00;70.60
75451;DHT22;64029;48.244;9.188;2023-07-31T08:14:14;18.10;70.60
75451;DHT22;64029;48.244;9.188;2023-07-31T08:16:43;18.20;68.30
75451;DHT22;64029;48.244;9.188;2023-07-31T08:19:15;18.30;67.00
75451;DHT22;64029;48.244;9.188;2023-07-31T08:21:42;18.40;66.90
75451;DHT22;64029;48.244;9.188;2023-07-31T08:24:09;18.50;66.20
75451;DHT22;64029;48.244;9.188;2023-07-31T08:26:36;18.70;66.90
75451;DHT22;64029;48.244;9.188;2023-07-31T08:29:04;18.70;67.70
75451;DHT22;64029;48.244;9.188;2023-07-31T08:31:31;18.80;66.10
75451;DHT22;64029;48.244;9.188;2023-07-31T08:33:59;18.90;66.20
75451;DHT22;64029;48.244;9.188;2023-07-31T08:36:26;19.00;66.60
75451;DHT22;64029;48.244;9.188;2023-07-31T08:38:53;19.10;65.10
75451;DHT22;64029;48.244;9.188;2023-07-31T08:41:20;19.20;64.30
75451;DHT22;64029;48.244;9.188;2023-07-31T08:43:49;19.30;64.60
75451;DHT22;64029;48.244;9.188;2023-07-31T08:46:16;19.40;65.20
75451;DHT22;64029;48.244;9.188;2023-07-31T08:48:43;19.50;64.60
75451;DHT22;64029;48.244;9.188;2023-07-31T08:51:13;19.60;64.70
75451;DHT22;64029;48.244;9.188;2023-07-31T08:53:40;19.70;64.10
75451;DHT22;64029;48.244;9.188;2023-07-31T08:56:07;19.80;63.40
75451;DHT22;64029;48.244;9.188;2023-07-31T08:58:35;19.80;63.20
75451;DHT22;64029;48.244;9.188;2023-07-31T09:01:07;19.90;62.70
75451;DHT22;64029;48.244;9.188;2023-07-31T09:03:35;19.90;63.10
75451;DHT22;64029;48.244;9.188;2023-07-31T09:06:03;20.00;62.90
75451;DHT22;64029;48.244;9.188;2023-07-31T09:08:33;20.00;61.40
75451;DHT22;64029;48.244;9.188;2023-07-31T09:11:01;20.10;62.30
75451;DHT22;64029;48.244;9.188;2023-07-31T09:13:30;20.10;61.40
75451;DHT22;64029;48.244;9.188;2023-07-31T09:16:00;20.10;60.50
75451;DHT22;64029;48.244;9.188;2023-07-31T09:18:27;20.10;60.80
75451;DHT22;64029;48.244;9.188;2023-07-31T09:21:03;20.10;60.50
75451;DHT22;64029;48.244;9.188;2023-07-31T09:23:45;20.10;60.80
75451;DHT22;64029;48.244;9.188;2023-07-31T09:26:28;20.10;60.10
75451;DHT22;64029;48.244;9.188;2023-07-31T09:28:56;20.10;60.60
75451;DHT22;64029;48.244;9.188;2023-07-31T09:31:32;20.10;59.90
75451;DHT22;64029;48.244;9.188;2023-07-31T09:33:59;20.20;60.60
75451;DHT22;64029;48.244;9.188;2023-07-31T09:36:31;20.10;60.20
75451;DHT22;64029;48.244;9.188;2023-07-31T09:39:02;20.10;60.10
75451;DHT22;64029;48.244;9.188;2023-07-31T09:41:31;20.20;60.80
75451;DHT22;64029;48.244;9.188;2023-07-31T09:44:03;20.20;60.30
75451;DHT22;64029;48.244;9.188;2023-07-31T09:46:35;20.20;60.70
75451;DHT22;64029;48.244;9.188;2023-07-31T09:49:08;20.20;60.60
75451;DHT22;64029;48.244;9.188;2023-07-31T09:51:36;20.10;58.70
75451;DHT22;64029;48.244;9.188;2023-07-31T09:54:15;20.10;59.00
75451;DHT22;64029;48.244;9.188;2023-07-31T09:56:46;20.10;59.10
75451;DHT22;64029;48.244;9.188;2023-07-31T09:59:15;20.10;58.90
75451;DHT22;64029;48.244;9.188;2023-07-31T10:01:43;20.20;60.10
75451;DHT22;64029;48.244;9.188;2023-07-31T10:04:12;20.10;59.00
75451;DHT22;64029;48.244;9.188;2023-07-31T10:06:41;20.20;59.50
75451;DHT22;64029;48.244;9.188;2023-07-31T10:09:10;20.20;59.40
75451;DHT22;64029;48.244;9.188;2023-07-31T10:11:43;20.20;59.70
75451;DHT22;64029;48.244;9.188;2023-07-31T10:14:17;20.30;60.10
75451;DHT22;64029;48.244;9.188;2023-07-31T10:16:47;20.20;59.40
75451;DHT22;64029;48.244;9.188;2023-07-31T10:19:15;20.30;59.50
75451;DHT22;64029;48.244;9.188;2023-07-31T10:21:42;20.20;59.50
75451;DHT22;64029;48.244;9.188;2023-07-31T10:24:10;20.30;59.50
75451;DHT22;64029;48.244;9.188;2023-07-31T10:26:39;20.30;60.10
75451;DHT22;64029;48.244;9.188;2023-07-31T10:29:06;20.30;59.50
75451;DHT22;64029;48.244;9.188;2023-07-31T10:31:34;20.30;60.30
75451;DHT22;64029;48.244;9.188;2023-07-31T10:34:01;20.30;60.20
75451;DHT22;64029;48.244;9.188;2023-07-31T10:36:29;20.40;60.40
75451;DHT22;64029;48.244;9.188;2023-07-31T10:38:56;20.30;58.70
75451;DHT22;64029;48.244;9.188;2023-07-31T10:41:29;20.30;59.30
75451;DHT22;64029;48.244;9.188;2023-07-31T10:43:59;20.30;59.90
75451;DHT22;64029;48.244;9.188;2023-07-31T10:46:28;20.30;60.50
75451;DHT22;64029;48.244;9.188;2023-07-31T10:48:58;20.40;61.00
75451;DHT22;64029;48.244;9.188;2023-07-31T10:51:33;20.50;61.10
75451;DHT22;64029;48.244;9.188;2023-07-31T10:54:10;20.40;59.20
75451;DHT22;64029;48.244;9.188;2023-07-31T10:56:38;20.40;60.10
75451;DHT22;64029;48.244;9.188;2023-07-31T10:59:06;20.50;60.20
75451;DHT22;64029;48.244;9.188;2023-07-31T11:02:01;20.50;59.80
75451;DHT22;64029;48.244;9.188;2023-07-31T11:04:29;20.50;60.40
75451;DHT22;64029;48.244;9.188;2023-07-31T11:06:57;20.50;60.40
75451;DHT22;64029;48.244;9.188;2023-07-31T11:09:27;20.50;60.30
75451;DHT22;64029;48.244;9.188;2023-07-31T11:11:55;20.50;60.00
75451;DHT22;64029;48.244;9.188;2023-07-31T11:14:24;20.50;60.50
75451;DHT22;64029;48.244;9.188;2023-07-31T11:16:51;20.50;60.90
75451;DHT22;64029;48.244;9.188;2023-07-31T11:19:22;20.60;61.10
75451;DHT22;64029;48.244;9.188;2023-07-31T11:21:49;20.60;61.10
75451;DHT22;64029;48.244;9.188;2023-07-31T11:24:17;20.70;61.50
75451;DHT22;64029;48.244;9.188;2023-07-31T11:26:53;20.70;60.30
75451;DHT22;64029;48.244;9.188;2023-07-31T11:29:21;20.80;60.10
75451;DHT22;64029;48.244;9.188;2023-07-31T11:31:55;20.80;61.10
75451;DHT22;64029;48.244;9.188;2023-07-31T11:34:22;20.90;60.70
75451;DHT22;64029;48.244;9.188;2023-07-31T11:36:55;20.90;60.70
75451;DHT22;64029;48.244;9.188;2023-07-31T11:39:22;20.90;61.20
75451;DHT22;64029;48.244;9.188;2023-07-31T11:41:49;20.90;60.70
75451;DHT22;64029;48.244;9.188;2023-07-31T11:44:16;20.80;60.00
75451;DHT22;64029;48.244;9.188;2023-07-31T11:46:43;20.90;60.10
75451;DHT22;64029;48.244;9.188;2023-07-31T11:49:12;20.90;60.20
75451;DHT22;64029;48.244;9.188;2023-07-31T11:51:39;21.00;60.80
75451;DHT22;64029;48.244;9.188;2023-07-31T11:54:06;21.10;61.00
75451;DHT22;64029;48.244;9.188;2023-07-31T11:56:33;21.10;60.60
75451;DHT22;64029;48.244;9.188;2023-07-31T11:59:01;21.10;61.20
75451;DHT22;64029;48.244;9.188;2023-07-31T12:01:29;21.10;60.60
75451;DHT22;64029;48.244;9.188;2023-07-31T12:03:57;21.10;59.70
75451;DHT22;64029;48.244;9.188;2023-07-31T12:06:34;21.20;60.80
75451;DHT22;64029;48.244;9.188;2023-07-31T12:09:03;21.20;61.10
75451;DHT22;64029;48.244;9.188;2023-07-31T12:11:41;21.30;61.30
75451;DHT22;64029;48.244;9.188;2023-07-31T12:14:19;21.30;61.20
75451;DHT22;64029;48.244;9.188;2023-07-31T12:16:46;21.40;60.30
75451;DHT22;64029;48.244;9.188;2023-07-31T12:19:13;21.30;60.20
75451;DHT22;64029;48.244;9.188;2023-07-31T12:21:42;21.40;60.50
75451;DHT22;64029;48.244;9.188;2023-07-31T12:24:09;21.40;60.40
75451;DHT22;64029;48.244;9.188;2023-07-31T12:26:36;21.40;60.30
75451;DHT22;64029;48.244;9.188;2023-07-31T12:29:07;21.40;60.20
75451;DHT22;64029;48.244;9.188;2023-07-31T12:31:34;21.50;59.30
75451;DHT22;64029;48.244;9.188;2023-07-31T12:34:02;21.40;58.70
75451;DHT22;64029;48.244;9.188;2023-07-31T12:36:29;21.40;59.20
75451;DHT22;64029;48.244;9.188;2023-07-31T12:39:02;21.40;58.40
75451;DHT22;64029;48.244;9.188;2023-07-31T12:41:30;21.40;58.50
75451;DHT22;64029;48.244;9.188;2023-07-31T12:43:57;21.40;59.00
75451;DHT22;64029;48.244;9.188;2023-07-31T12:46:24;21.40;58.20
75451;DHT22;64029;48.244;9.188;2023-07-31T12:48:51;21.50;59.20
75451;DHT22;64029;48.244;9.188;2023-07-31T12:51:18;21.50;59.50
75451;DHT22;64029;48.244;9.188;2023-07-31T12:53:44;21.60;59.40
75451;DHT22;64029;48.244;9.188;2023-07-31T12:56:14;21.60;59.40
75451;DHT22;64029;48.244;9.188;2023-07-31T12:58:43;21.60;58.80
75451;DHT22;64029;48.244;9.188;2023-07-31T13:01:10;21.60;58.10
75451;DHT22;64029;48.244;9.188;2023-07-31T13:03:37;21.60;58.40
75451;DHT22;64029;48.244;9.188;2023-07-31T13:06:04;21.70;58.60
75451;DHT22;64029;48.244;9.188;2023-07-31T13:08:31;21.80;59.20
75451;DHT22;64029;48.244;9.188;2023-07-31T13:10:58;21.90;59.20
75451;DHT22;64029;48.244;9.188;2023-07-31T13:13:26;21.90;59.30
75451;DHT22;64029;48.244;9.188;2023-07-31T13:15:55;21.90;58.70
75451;DHT22;64029;48.244;9.188;2023-07-31T13:18:22;21.90;57.80
75451;DHT22;64029;48.244;9.188;2023-07-31T13:20:49;21.80;57.60
75451;DHT22;64029;48.244;9.188;2023-07-31T13:23:16;21.80;58.00
75451;DHT22;64029;48.244;9.188;2023-07-31T13:25:43;21.90;57.70
75451;DHT22;64029;48.244;9.188;2023-07-31T13:28:09;21.90;58.10
75451;DHT22;64029;48.244;9.188;2023-07-31T13:30:39;22.00;58.00
75451;DHT22;64029;48.244;9.188;2023-07-31T13:33:07;22.00;56.90
75451;DHT22;64029;48.244;9.188;2023-07-31T13:35:34;21.90;56.40
75451;DHT22;64029;48.244;9.188;2023-07-31T13:38:00;21.90;55.90
75451;DHT22;64029;48.244;9.188;2023-07-31T13:40:28;21.90;56.90
75451;DHT22;64029;48.244;9.188;2023-07-31T13:42:55;22.00;57.00
75451;DHT22;64029;48.244;9.188;2023-07-31T13:45:22;21.90;56.20
75451;DHT22;64029;48.244;9.188;2023-07-31T13:47:51;22.00;57.40
75451;DHT22;64029;48.244;9.188;2023-07-31T13:50:18;22.00;56.80
75451;DHT22;64029;48.244;9.188;2023-07-31T13:52:47;22.00;56.10
75451;DHT22;64029;48.244;9.188;2023-07-31T13:55:14;22.00;56.10
75451;DHT22;64029;48.244;9.188;2023-07-31T13:57:41;22.00;56.60
75451;DHT22;64029;48.244;9.188;2023-07-31T14:00:09;22.00;54.50
75451;DHT22;64029;48.244;9.188;2023-07-31T14:02:37;22.00;55.20
75451;DHT22;64029;48.244;9.188;2023-07-31T14:05:06;22.00;55.70
75451;DHT22;64029;48.244;9.188;2023-07-31T14:07:35;22.00;54.70
75451;DHT22;64029;48.244;9.188;2023-07-31T14:10:02;22.10;55.80
75451;DHT22;64029;48.244;9.188;2023-07-31T14:12:29;22.10;55.20
75451;DHT22;64029;48.244;9.188;2023-07-31T14:14:57;22.10;55.90
75451;DHT22;64029;48.244;9.188;2023-07-31T14:17:24;22.20;54.50
75451;DHT22;64029;48.244;9.188;2023-07-31T14:19:51;22.20;54.40
75451;DHT22;64029;48.244;9.188;2023-07-31T14:22:28;22.20;53.00
75451;DHT22;64029;48.244;9.188;2023-07-31T14:24:55;22.20;54.20
75451;DHT22;64029;48.244;9.188;2023-07-31T14:27:22;22.20;53.60
75451;DHT22;64029;48.244;9.188;2023-07-31T14:29:49;22.10;52.60
75451;DHT22;64029;48.244;9.188;2023-07-31T14:32:16;22.10;53.10
75451;DHT22;64029;48.244;9.188;2023-07-31T14:34:43;22.20;53.30
75451;DHT22;64029;48.244;9.188;2023-07-31T14:37:13;22.20;53.90
75451;DHT22;64029;48.244;9.188;2023-07-31T14:39:42;22.20;53.20
75451;DHT22;64029;48.244;9.188;2023-07-31T14:42:09;22.20;52.50
75451;DHT22;64029;48.244;9.188;2023-07-31T14:44:36;22.20;52.70
75451;DHT22;64029;48.244;9.188;2023-07-31T14:47:06;22.20;52.20
75451;DHT22;64029;48.244;9.188;2023-07-31T14:49:33;22.20;52.60
75451;DHT22;64029;48.244;9.188;2023-07-31T14:52:00;22.20;51.90
75451;DHT22;64029;48.244;9.188;2023-07-31T14:54:27;22.20;52.40
75451;DHT22;64029;48.244;9.188;2023-07-31T14:56:55;22.20;52.60
75451;DHT22;64029;48.244;9.188;2023-07-31T14:59:22;22.20;53.00
75451;DHT22;64029;48.244;9.188;2023-07-31T15:01:49;22.20;52.30
75451;DHT22;64029;48.244;9.188;2023-07-31T15:04:16;22.20;53.40
75451;DHT22;64029;48.244;9.188;2023-07-31T15:06:43;22.20;53.00
75451;DHT22;64029;48.244;9.188;2023-07-31T15:09:10;22.20;53.00
75451;DHT22;64029;48.244;9.188;2023-07-31T15:11:37;22.20;53.50
75451;DHT22;64029;48.244;9.188;2023-07-31T15:14:05;22.20;54.50
75451;DHT22;64029;48.244;9.188;2023-07-31T15:16:35;22.20;54.50
75451;DHT22;64029;48.244;9.188;2023-07-31T15:19:02;22.20;54.70
75451;DHT22;64029;48.244;9.188;2023-07-31T15:21:29;22.20;54.80
75451;DHT22;64029;48.244;9.188;2023-07-31T15:23:56;22.20;55.00
75451;DHT22;64029;48.244;9.188;2023-07-31T15:26:23;22.20;55.20
75451;DHT22;64029;48.244;9.188;2023-07-31T15:28:56;22.20;55.50
75451;DHT22;64029;48.244;9.188;2023-07-31T15:31:24;22.20;55.60
75451;DHT22;64029;48.244;9.188;2023-07-31T15:33:51;22.20;55.40
75451;DHT22;64029;48.244;9.188;2023-07-31T15:36:18;22.10;55.10
75451;DHT22;64029;48.244;9.188;2023-07-31T15:38:45;22.10;55.70